sensor_id;sensor_type;location;lat;lon;timestamp;temperature;humidity
25951;DHT22;13748;52.240;6.002;2022-08-19T00:01:57;19.10;99.90
25951;DHT22;13748;52.240;6.002;2022-08-19T00:04:29;19.10;99.90
25951;DHT22;13748;52.240;6.002;2022-08-19T00:06:57;19.00;99.90
25951;DHT22;13748;52.240;6.002;2022-08-19T00:09:24;18.90;99.90
25951;DHT22;13748;52.240;6.002;2022-08-19T00:11:52;19.00;99.90
25951;DHT22;13748;52.240;6.002;2022-08-19T00:14:24;18.90;99.90
25951;DHT22;13748;52.240;6.002;2022-08-19T00:16:52;18.90;99.90
25951;DHT22;13748;52.240;6.002;2022-08-19T00:19:22;18.90;99.90
25951;DHT22;13748;52.240;6.002;2022-08-19T00:21:49;18.80;99.90
25951;DHT22;13748;52.240;6.002;2022-08-19T00:24:22;18.80;99.90
25951;DHT22;13748;52.240;6.002;2022-08-19T00:26:52;18.70;99.90
25951;DHT22;13748;52.240;6.002;2022-08-19T00:29:21;18.70;99.90
25951;DHT22;13748;52.240;6.002;2022-08-19T00:31:50;18.70;99.90
25951;DHT22;13748;52.240;6.002;2022-08-19T00:34:21;18.60;99.90
25951;DHT22;13748;52.240;6.002;2022-08-19T00:36:49;18.50;99.90
25951;DHT22;13748;52.240;6.002;2022-08-19T00:39:18;18.50;99.90
25951;DHT22;13748;52.240;6.002;2022-08-19T00:41:48;18.50;99.90
25951;DHT22;13748;52.240;6.002;2022-08-19T00:44:20;18.50;99.90
25951;DHT22;13748;52.240;6.002;2022-08-19T00:46:53;18.50;99.90
25951;DHT22;13748;52.240;6.002;2022-08-19T00:49:40;18.50;99.90
25951;DHT22;13748;52.240;6.002;2022-08-19T00:52:31;18.40;99.90
25951;DHT22;13748;52.240;6.002;2022-08-19T00:55:04;18.40;99.90
25951;DHT22;13748;52.240;6.002;2022-08-19T00:57:40;18.40;99.90
25951;DHT22;13748;52.240;6.002;2022-08-19T01:00:18;18.40;99.90
25951;DHT22;13748;52.240;6.002;2022-08-19T01:02:46;18.30;99.90
25951;DHT22;13748;52.240;6.002;2022-08-19T01:05:21;18.40;99.90
25951;DHT22;13748;52.240;6.002;2022-08-19T01:07:50;18.30;99.90
25951;DHT22;13748;52.240;6.002;2022-08-19T01:10:20;18.30;99.90
25951;DHT22;13748;52.240;6.002;2022-08-19T01:12:49;18.20;99.90
25951;DHT22;13748;52.240;6.002;2022-08-19T01:15:22;18.20;99.90
25951;DHT22;13748;52.240;6.002;2022-08-19T01:17:51;18.20;99.90
25951;DHT22;13748;52.240;6.002;2022-08-19T01:20:23;18.30;99.90
25951;DHT22;13748;52.240;6.002;2022-08-19T01:22:57;18.10;99.90
25951;DHT22;13748;52.240;6.002;2022-08-19T01:25:36;18.20;99.90
25951;DHT22;13748;52.240;6.002;2022-08-19T01:28:15;18.10;99.90
25951;DHT22;13748;52.240;6.002;2022-08-19T01:30:45;18.10;99.90
25951;DHT22;13748;52.240;6.002;2022-08-19T01:33:16;18.10;99.90
25951;DHT22;13748;52.240;6.002;2022-08-19T01:35:44;18.10;99.90
25951;DHT22;13748;52.240;6.002;2022-08-19T01:38:24;18.00;99.90
25951;DHT22;13748;52.240;6.002;2022-08-19T01:40:54;18.00;99.90
25951;DHT22;13748;52.240;6.002;2022-08-19T01:43:22;18.00;99.90
25951;DHT22;13748;52.240;6.002;2022-08-19T01:45:49;18.00;99.90
25951;DHT22;13748;52.240;6.002;2022-08-19T01:48:18;18.00;99.90
25951;DHT22;13748;52.240;6.002;2022-08-19T01:50:48;17.90;99.90
25951;DHT22;13748;52.240;6.002;2022-08-19T01:53:16;17.90;99.90
25951;DHT22;13748;52.240;6.002;2022-08-19T01:55:43;18.00;99.90
25951;DHT22;13748;52.240;6.002;2022-08-19T01:58:18;18.00;99.90
25951;DHT22;13748;52.240;6.002;2022-08-19T02:00:48;18.00;99.90
25951;DHT22;13748;52.240;6.002;2022-08-19T02:03:15;18.10;99.90
25951;DHT22;13748;52.240;6.002;2022-08-19T02:05:43;18.10;99.90
25951;DHT22;13748;52.240;6.002;2022-08-19T02:08:11;18.10;99.90
25951;DHT22;13748;52.240;6.002;2022-08-19T02:10:42;18.20;99.90
25951;DHT22;13748;52.240;6.002;2022-08-19T02:13:13;18.20;99.90
25951;DHT22;13748;52.240;6.002;2022-08-19T02:15:41;18.20;99.90
25951;DHT22;13748;52.240;6.002;2022-08-19T02:18:08;18.20;99.90
25951;DHT22;13748;52.240;6.002;2022-08-19T02:20:36;18.10;99.90
25951;DHT22;13748;52.240;6.002;2022-08-19T02:23:04;18.10;99.90
25951;DHT22;13748;52.240;6.002;2022-08-19T02:25:40;18.10;99.90
25951;DHT22;13748;52.240;6.002;2022-08-19T02:28:09;18.00;99.90
25951;DHT22;13748;52.240;6.002;2022-08-19T02:30:36;18.00;99.90
25951;DHT22;13748;52.240;6.002;2022-08-19T02:33:03;18.00;99.90
25951;DHT22;13748;52.240;6.002;2022-08-19T02:35:36;18.00;99.90
25951;DHT22;13748;52.240;6.002;2022-08-19T02:38:03;17.90;99.90
25951;DHT22;13748;52.240;6.002;2022-08-19T02:40:57;17.90;99.90
25951;DHT22;13748;52.240;6.002;2022-08-19T02:43:25;17.90;99.90
25951;DHT22;13748;52.240;6.002;2022-08-19T02:45:53;17.90;99.90
25951;DHT22;13748;52.240;6.002;2022-08-19T02:48:23;17.90;99.90
25951;DHT22;13748;52.240;6.002;2022-08-19T02:50:52;17.80;99.90
25951;DHT22;13748;52.240;6.002;2022-08-19T02:53:26;17.80;99.90
25951;DHT22;13748;52.240;6.002;2022-08-19T02:55:54;17.80;99.90
25951;DHT22;13748;52.240;6.002;2022-08-19T02:58:22;17.80;99.90
25951;DHT22;13748;52.240;6.002;2022-08-19T03:00:53;17.80;99.90
25951;DHT22;13748;52.240;6.002;2022-08-19T03:03:21;17.70;99.90
25951;DHT22;13748;52.240;6.002;2022-08-19T03:06:13;17.80;99.90
25951;DHT22;13748;52.240;6.002;2022-08-19T03:08:43;17.80;99.90
25951;DHT22;13748;52.240;6.002;2022-08-19T03:11:18;17.80;99.90
25951;DHT22;13748;52.240;6.002;2022-08-19T03:13:46;17.80;99.90
25951;DHT22;13748;52.240;6.002;2022-08-19T03:16:16;17.90;99.90
25951;DHT22;13748;52.240;6.002;2022-08-19T03:18:43;17.90;99.90
25951;DHT22;13748;52.240;6.002;2022-08-19T03:21:17;18.00;99.90
25951;DHT22;13748;52.240;6.002;2022-08-19T03:23:45;18.00;99.90
25951;DHT22;13748;52.240;6.002;2022-08-19T03:26:16;18.00;99.90
25951;DHT22;13748;52.240;6.002;2022-08-19T03:28:46;17.90;99.90
25951;DHT22;13748;52.240;6.002;2022-08-19T03:31:25;18.00;99.90
25951;DHT22;13748;52.240;6.002;2022-08-19T03:34:13;17.80;99.90
25951;DHT22;13748;52.240;6.002;2022-08-19T03:36:41;17.80;99.90
25951;DHT22;13748;52.240;6.002;2022-08-19T03:39:10;17.70;99.90
25951;DHT22;13748;52.240;6.002;2022-08-19T03:41:39;17.70;99.90
25951;DHT22;13748;52.240;6.002;2022-08-19T03:44:17;17.60;99.90
25951;DHT22;13748;52.240;6.002;2022-08-19T03:46:49;17.60;99.90
25951;DHT22;13748;52.240;6.002;2022-08-19T03:49:21;17.50;99.90
25951;DHT22;13748;52.240;6.002;2022-08-19T03:51:55;17.50;99.90
25951;DHT22;13748;52.240;6.002;2022-08-19T03:54:24;17.50;99.90
25951;DHT22;13748;52.240;6.002;2022-08-19T03:56:54;17.40;99.90
25951;DHT22;13748;52.240;6.002;2022-08-19T03:59:25;17.40;99.90
25951;DHT22;13748;52.240;6.002;2022-08-19T04:01:57;17.40;99.90
25951;DHT22;13748;52.240;6.002;2022-08-19T04:04:26;17.40;99.90
25951;DHT22;13748;52.240;6.002;2022-08-19T04:06:55;17.40;99.90
25951;DHT22;13748;52.240;6.002;2022-08-19T04:09:23;17.40;99.90
25951;DHT22;13748;52.240;6.002;2022-08-19T04:11:52;17.40;99.90
25951;DHT22;13748;52.240;6.002;2022-08-19T04:14:25;17.40;99.90
25951;DHT22;13748;52.240;6.002;2022-08-19T04:16:54;17.50;99.90
25951;DHT22;13748;52.240;6.002;2022-08-19T04:19:21;17.40;99.90
25951;DHT22;13748;52.240;6.002;2022-08-19T04:21:51;17.40;99.90
25951;DHT22;13748;52.240;6.002;2022-08-19T04:24:19;17.40;99.90
25951;DHT22;13748;52.240;6.002;2022-08-19T04:26:47;17.40;99.90
25951;DHT22;13748;52.240;6.002;2022-08-19T04:29:20;17.40;99.90
25951;DHT22;13748;52.240;6.002;2022-08-19T04:31:49;17.30;99.90
25951;DHT22;13748;52.240;6.002;2022-08-19T04:34:21;17.30;99.90
25951;DHT22;13748;52.240;6.002;2022-08-19T04:36:53;17.30;99.90
25951;DHT22;13748;52.240;6.002;2022-08-19T04:39:23;17.30;99.90
25951;DHT22;13748;52.240;6.002;2022-08-19T04:42:11;17.20;99.90
25951;DHT22;13748;52.240;6.002;2022-08-19T04:45:00;17.20;99.90
25951;DHT22;13748;52.240;6.002;2022-08-19T04:47:30;17.10;99.90
25951;DHT22;13748;52.240;6.002;2022-08-19T04:50:18;17.10;99.90
25951;DHT22;13748;52.240;6.002;2022-08-19T04:52:45;17.10;99.90
25951;DHT22;13748;52.240;6.002;2022-08-19T04:55:12;17.10;99.90
25951;DHT22;13748;52.240;6.002;2022-08-19T04:57:41;17.10;99.90
25951;DHT22;13748;52.240;6.002;2022-08-19T05:00:09;17.10;99.90
25951;DHT22;13748;52.240;6.002;2022-08-19T05:02:37;17.10;99.90
25951;DHT22;13748;52.240;6.002;2022-08-19T05:05:04;17.10;99.90
25951;DHT22;13748;52.240;6.002;2022-08-19T05:07:33;17.10;99.90
25951;DHT22;13748;52.240;6.002;2022-08-19T05:10:01;17.10;99.90
25951;DHT22;13748;52.240;6.002;2022-08-19T05:12:29;17.10;99.90
25951;DHT22;13748;52.240;6.002;2022-08-19T05:14:57;17.10;99.90
25951;DHT22;13748;52.240;6.002;2022-08-19T05:17:26;17.10;99.90
25951;DHT22;13748;52.240;6.002;2022-08-19T05:19:58;17.20;99.90
25951;DHT22;13748;52.240;6.002;2022-08-19T05:22:54;17.30;99.90
25951;DHT22;13748;52.240;6.002;2022-08-19T05:25:22;17.20;99.90
25951;DHT22;13748;52.240;6.002;2022-08-19T05:27:49;17.30;99.90
25951;DHT22;13748;52.240;6.002;2022-08-19T05:30:17;17.30;99.90
25951;DHT22;13748;52.240;6.002;2022-08-19T05:33:07;17.40;99.90
25951;DHT22;13748;52.240;6.002;2022-08-19T05:35:39;17.50;99.90
25951;DHT22;13748;52.240;6.002;2022-08-19T05:38:07;17.50;99.90
25951;DHT22;13748;52.240;6.002;2022-08-19T05:40:35;17.60;99.90
25951;DHT22;13748;52.240;6.002;2022-08-19T05:43:04;17.60;99.90
25951;DHT22;13748;52.240;6.002;2022-08-19T05:45:31;17.70;99.90
25951;DHT22;13748;52.240;6.002;2022-08-19T05:47:59;17.70;99.90
25951;DHT22;13748;52.240;6.002;2022-08-19T05:50:26;17.80;99.90
25951;DHT22;13748;52.240;6.002;2022-08-19T05:52:58;17.90;99.90
25951;DHT22;13748;52.240;6.002;2022-08-19T05:55:25;18.00;99.90
25951;DHT22;13748;52.240;6.002;2022-08-19T05:57:52;18.00;99.90
25951;DHT22;13748;52.240;6.002;2022-08-19T06:00:19;18.10;99.90
25951;DHT22;13748;52.240;6.002;2022-08-19T06:02:50;18.20;99.90
25951;DHT22;13748;52.240;6.002;2022-08-19T06:05:18;18.30;99.90
25951;DHT22;13748;52.240;6.002;2022-08-19T06:07:46;18.40;99.90
25951;DHT22;13748;52.240;6.002;2022-08-19T06:10:13;18.50;99.90
25951;DHT22;13748;52.240;6.002;2022-08-19T06:12:40;18.60;99.90
25951;DHT22;13748;52.240;6.002;2022-08-19T06:15:11;18.70;99.90
25951;DHT22;13748;52.240;6.002;2022-08-19T06:17:50;19.20;99.90
25951;DHT22;13748;52.240;6.002;2022-08-19T06:20:38;20.00;99.90
25951;DHT22;13748;52.240;6.002;2022-08-19T06:23:27;21.50;99.90
25951;DHT22;13748;52.240;6.002;2022-08-19T06:26:13;22.70;99.90
25951;DHT22;13748;52.240;6.002;2022-08-19T06:29:20;23.80;99.90
25951;DHT22;13748;52.240;6.002;2022-08-19T06:32:52;24.90;99.90
25951;DHT22;13748;52.240;6.002;2022-08-19T06:36:07;25.90;99.90
25951;DHT22;13748;52.240;6.002;2022-08-19T06:39:36;26.30;99.90
25951;DHT22;13748;52.240;6.002;2022-08-19T06:45:07;27.90;99.90
25951;DHT22;13748;52.240;6.002;2022-08-19T06:47:51;28.30;99.90
25951;DHT22;13748;52.240;6.002;2022-08-19T06:50:21;28.70;99.90
25951;DHT22;13748;52.240;6.002;2022-08-19T06:52:50;29.00;99.90
25951;DHT22;13748;52.240;6.002;2022-08-19T06:55:18;29.30;99.90
25951;DHT22;13748;52.240;6.002;2022-08-19T06:57:46;29.70;99.90
25951;DHT22;13748;52.240;6.002;2022-08-19T07:00:13;29.90;99.90
25951;DHT22;13748;52.240;6.002;2022-08-19T07:02:43;29.90;99.90
25951;DHT22;13748;52.240;6.002;2022-08-19T07:05:24;30.00;99.90
25951;DHT22;13748;52.240;6.002;2022-08-19T07:07:51;29.80;99.90
25951;DHT22;13748;52.240;6.002;2022-08-19T07:10:39;30.00;99.90
25951;DHT22;13748;52.240;6.002;2022-08-19T07:13:17;30.10;99.90
25951;DHT22;13748;52.240;6.002;2022-08-19T07:16:04;30.10;99.90
25951;DHT22;13748;52.240;6.002;2022-08-19T07:19:48;30.10;99.90
25951;DHT22;13748;52.240;6.002;2022-08-19T07:23:01;29.80;99.90
25951;DHT22;13748;52.240;6.002;2022-08-19T07:26:03;30.10;99.90
25951;DHT22;13748;52.240;6.002;2022-08-19T07:29:09;30.40;99.90
25951;DHT22;13748;52.240;6.002;2022-08-19T07:35:16;30.50;99.90
25951;DHT22;13748;52.240;6.002;2022-08-19T07:38:09;30.60;99.90
25951;DHT22;13748;52.240;6.002;2022-08-19T07:40:38;30.70;99.90
25951;DHT22;13748;52.240;6.002;2022-08-19T07:43:06;30.80;99.90
25951;DHT22;13748;52.240;6.002;2022-08-19T07:45:45;31.10;99.90
25951;DHT22;13748;52.240;6.002;2022-08-19T07:52:19;31.00;99.90
25951;DHT22;13748;52.240;6.002;2022-08-19T07:55:10;30.50;99.90
25951;DHT22;13748;52.240;6.002;2022-08-19T07:58:05;30.50;99.90
25951;DHT22;13748;52.240;6.002;2022-08-19T08:00:58;30.80;99.90
25951;DHT22;13748;52.240;6.002;2022-08-19T08:03:42;30.90;99.90
25951;DHT22;13748;52.240;6.002;2022-08-19T08:06:28;30.70;99.90
25951;DHT22;13748;52.240;6.002;2022-08-19T08:09:16;30.60;99.90
25951;DHT22;13748;52.240;6.002;2022-08-19T08:12:24;30.50;99.90
25951;DHT22;13748;52.240;6.002;2022-08-19T08:18:14;30.30;99.90
25951;DHT22;13748;52.240;6.002;2022-08-19T08:21:22;30.30;99.90
25951;DHT22;13748;52.240;6.002;2022-08-19T08:23:49;30.60;99.90
25951;DHT22;13748;52.240;6.002;2022-08-19T08:26:19;30.80;99.90
25951;DHT22;13748;52.240;6.002;2022-08-19T08:28:46;30.90;99.90
25951;DHT22;13748;52.240;6.002;2022-08-19T08:31:15;31.10;99.90
25951;DHT22;13748;52.240;6.002;2022-08-19T08:33:43;31.20;99.90
25951;DHT22;13748;52.240;6.002;2022-08-19T08:36:11;31.30;99.90
25951;DHT22;13748;52.240;6.002;2022-08-19T08:38:38;31.20;99.90
25951;DHT22;13748;52.240;6.002;2022-08-19T08:43:58;30.80;99.90
25951;DHT22;13748;52.240;6.002;2022-08-19T08:46:43;30.70;99.90
25951;DHT22;13748;52.240;6.002;2022-08-19T08:49:28;30.60;99.90
25951;DHT22;13748;52.240;6.002;2022-08-19T08:52:25;30.60;99.90
25951;DHT22;13748;52.240;6.002;2022-08-19T08:55:01;30.70;99.90
25951;DHT22;13748;52.240;6.002;2022-08-19T09:00:22;30.70;99.90
25951;DHT22;13748;52.240;6.002;2022-08-19T09:02:50;30.90;99.90
25951;DHT22;13748;52.240;6.002;2022-08-19T09:05:18;30.80;99.90
25951;DHT22;13748;52.240;6.002;2022-08-19T09:08:26;30.50;99.90
25951;DHT22;13748;52.240;6.002;2022-08-19T09:10:57;30.30;99.90
25951;DHT22;13748;52.240;6.002;2022-08-19T09:13:44;30.40;99.90
25951;DHT22;13748;52.240;6.002;2022-08-19T09:16:18;30.50;99.90
25951;DHT22;13748;52.240;6.002;2022-08-19T09:19:01;30.40;99.90
25951;DHT22;13748;52.240;6.002;2022-08-19T09:21:28;30.60;99.90
25951;DHT22;13748;52.240;6.002;2022-08-19T09:23:58;30.70;99.90
25951;DHT22;13748;52.240;6.002;2022-08-19T09:26:26;30.70;99.90
25951;DHT22;13748;52.240;6.002;2022-08-19T09:29:13;30.50;99.90
25951;DHT22;13748;52.240;6.002;2022-08-19T09:31:40;30.40;99.90
25951;DHT22;13748;52.240;6.002;2022-08-19T09:34:07;30.50;99.90
25951;DHT22;13748;52.240;6.002;2022-08-19T09:36:48;30.60;99.90
25951;DHT22;13748;52.240;6.002;2022-08-19T09:39:22;30.70;99.90
25951;DHT22;13748;52.240;6.002;2022-08-19T09:41:49;30.70;99.90
25951;DHT22;13748;52.240;6.002;2022-08-19T09:44:19;30.70;99.90
25951;DHT22;13748;52.240;6.002;2022-08-19T09:46:48;30.40;99.90
25951;DHT22;13748;52.240;6.002;2022-08-19T09:49:17;30.00;99.90
25951;DHT22;13748;52.240;6.002;2022-08-19T09:51:45;30.00;99.90
25951;DHT22;13748;52.240;6.002;2022-08-19T09:54:17;30.10;99.90
25951;DHT22;13748;52.240;6.002;2022-08-19T09:56:52;30.10;99.90
25951;DHT22;13748;52.240;6.002;2022-08-19T09:59:19;30.10;99.90
25951;DHT22;13748;52.240;6.002;2022-08-19T10:01:46;30.00;99.90
25951;DHT22;13748;52.240;6.002;2022-08-19T10:04:13;29.70;99.90
25951;DHT22;13748;52.240;6.002;2022-08-19T10:06:49;29.50;99.90
25951;DHT22;13748;52.240;6.002;2022-08-19T10:09:20;29.50;99.90
25951;DHT22;13748;52.240;6.002;2022-08-19T10:12:03;29.70;99.90
25951;DHT22;13748;52.240;6.002;2022-08-19T10:14:31;29.90;99.90
25951;DHT22;13748;52.240;6.002;2022-08-19T10:17:02;29.80;99.90
25951;DHT22;13748;52.240;6.002;2022-08-19T10:19:50;29.70;99.90
25951;DHT22;13748;52.240;6.002;2022-08-19T10:22:21;29.50;99.90
25951;DHT22;13748;52.240;6.002;2022-08-19T10:24:51;29.40;99.90
25951;DHT22;13748;52.240;6.002;2022-08-19T10:27:19;29.20;99.90
25951;DHT22;13748;52.240;6.002;2022-08-19T10:29:46;29.20;99.90
25951;DHT22;13748;52.240;6.002;2022-08-19T10:32:14;29.20;99.90
25951;DHT22;13748;52.240;6.002;2022-08-19T10:34:42;29.30;99.90
25951;DHT22;13748;52.240;6.002;2022-08-19T10:37:15;29.40;99.90
25951;DHT22;13748;52.240;6.002;2022-08-19T10:39:54;29.40;99.90
25951;DHT22;13748;52.240;6.002;2022-08-19T10:42:21;29.50;99.90
25951;DHT22;13748;52.240;6.002;2022-08-19T10:44:48;29.60;99.90
25951;DHT22;13748;52.240;6.002;2022-08-19T10:47:17;29.40;99.90
25951;DHT22;13748;52.240;6.002;2022-08-19T10:50:01;29.40;99.70
25951;DHT22;13748;52.240;6.002;2022-08-19T10:53:16;29.40;99.90
25951;DHT22;13748;52.240;6.002;2022-08-19T11:02:51;29.20;99.90
25951;DHT22;13748;52.240;6.002;2022-08-19T11:08:55;29.40;99.90
25951;DHT22;13748;52.240;6.002;2022-08-19T11:11:22;29.40;99.90
25951;DHT22;13748;52.240;6.002;2022-08-19T11:13:58;29.40;99.90
25951;DHT22;13748;52.240;6.002;2022-08-19T11:17:16;29.50;99.90
25951;DHT22;13748;52.240;6.002;2022-08-19T11:19:57;29.50;99.90
25951;DHT22;13748;52.240;6.002;2022-08-19T11:22:38;29.60;99.90
25951;DHT22;13748;52.240;6.002;2022-08-19T11:29:14;29.30;99.90
25951;DHT22;13748;52.240;6.002;2022-08-19T11:36:33;29.30;99.90
25951;DHT22;13748;52.240;6.002;2022-08-19T11:39:03;29.40;99.60
25951;DHT22;13748;52.240;6.002;2022-08-19T11:41:31;29.40;99.40
25951;DHT22;13748;52.240;6.002;2022-08-19T11:43:57;29.30;99.90
25951;DHT22;13748;52.240;6.002;2022-08-19T11:46:26;29.30;99.90
25951;DHT22;13748;52.240;6.002;2022-08-19T11:48:54;29.30;99.70
25951;DHT22;13748;52.240;6.002;2022-08-19T11:51:23;29.50;99.30
25951;DHT22;13748;52.240;6.002;2022-08-19T11:53:55;29.70;99.10
25951;DHT22;13748;52.240;6.002;2022-08-19T11:56:23;30.00;99.60
25951;DHT22;13748;52.240;6.002;2022-08-19T11:58:52;30.20;99.40
25951;DHT22;13748;52.240;6.002;2022-08-19T12:01:21;30.10;99.70
25951;DHT22;13748;52.240;6.002;2022-08-19T12:03:50;30.30;99.50
25951;DHT22;13748;52.240;6.002;2022-08-19T12:06:21;30.40;99.10
25951;DHT22;13748;52.240;6.002;2022-08-19T12:08:52;30.60;99.40
25951;DHT22;13748;52.240;6.002;2022-08-19T12:11:19;30.80;99.70
25951;DHT22;13748;52.240;6.002;2022-08-19T12:13:45;30.70;98.40
25951;DHT22;13748;52.240;6.002;2022-08-19T12:16:29;30.80;98.40
25951;DHT22;13748;52.240;6.002;2022-08-19T12:19:23;30.90;97.70
25951;DHT22;13748;52.240;6.002;2022-08-19T12:22:36;31.00;97.40
25951;DHT22;13748;52.240;6.002;2022-08-19T12:25:31;30.80;97.00
25951;DHT22;13748;52.240;6.002;2022-08-19T12:28:39;30.80;98.30
25951;DHT22;13748;52.240;6.002;2022-08-19T12:32:13;30.90;98.10
25951;DHT22;13748;52.240;6.002;2022-08-19T12:35:17;30.90;98.00
25951;DHT22;13748;52.240;6.002;2022-08-19T12:37:48;30.90;97.60
25951;DHT22;13748;52.240;6.002;2022-08-19T12:40:22;30.40;97.10
25951;DHT22;13748;52.240;6.002;2022-08-19T12:42:52;30.10;97.90
25951;DHT22;13748;52.240;6.002;2022-08-19T12:45:19;30.10;97.90
25951;DHT22;13748;52.240;6.002;2022-08-19T12:47:46;30.30;97.40
25951;DHT22;13748;52.240;6.002;2022-08-19T12:50:15;30.50;97.20
25951;DHT22;13748;52.240;6.002;2022-08-19T12:52:42;30.70;97.40
25951;DHT22;13748;52.240;6.002;2022-08-19T12:55:09;30.90;97.30
25951;DHT22;13748;52.240;6.002;2022-08-19T12:57:37;31.00;96.90
25951;DHT22;13748;52.240;6.002;2022-08-19T13:00:10;31.10;96.40
25951;DHT22;13748;52.240;6.002;2022-08-19T13:02:41;31.20;96.30
25951;DHT22;13748;52.240;6.002;2022-08-19T13:05:10;31.30;96.00
25951;DHT22;13748;52.240;6.002;2022-08-19T13:07:39;31.30;95.90
25951;DHT22;13748;52.240;6.002;2022-08-19T13:10:09;31.10;95.60
25951;DHT22;13748;52.240;6.002;2022-08-19T13:12:36;31.00;96.00
25951;DHT22;13748;52.240;6.002;2022-08-19T13:15:06;31.20;95.80
25951;DHT22;13748;52.240;6.002;2022-08-19T13:17:40;31.40;95.60
25951;DHT22;13748;52.240;6.002;2022-08-19T13:20:10;31.60;95.20
25951;DHT22;13748;52.240;6.002;2022-08-19T13:22:37;31.50;94.70
25951;DHT22;13748;52.240;6.002;2022-08-19T13:25:06;31.60;95.00
25951;DHT22;13748;52.240;6.002;2022-08-19T13:27:33;31.80;95.30
25951;DHT22;13748;52.240;6.002;2022-08-19T13:30:01;31.60;95.10
25951;DHT22;13748;52.240;6.002;2022-08-19T13:32:47;31.60;95.30
25951;DHT22;13748;52.240;6.002;2022-08-19T13:35:33;31.50;94.90
25951;DHT22;13748;52.240;6.002;2022-08-19T13:38:00;31.30;94.80
25951;DHT22;13748;52.240;6.002;2022-08-19T13:40:38;31.30;95.20
25951;DHT22;13748;52.240;6.002;2022-08-19T13:43:07;31.20;95.20
25951;DHT22;13748;52.240;6.002;2022-08-19T13:45:50;31.20;95.10
25951;DHT22;13748;52.240;6.002;2022-08-19T13:48:17;31.20;95.10
25951;DHT22;13748;52.240;6.002;2022-08-19T13:50:45;31.00;95.50
25951;DHT22;13748;52.240;6.002;2022-08-19T13:53:14;31.00;95.60
25951;DHT22;13748;52.240;6.002;2022-08-19T13:55:42;31.00;95.90
25951;DHT22;13748;52.240;6.002;2022-08-19T13:58:10;31.00;97.30
25951;DHT22;13748;52.240;6.002;2022-08-19T14:00:40;30.80;99.00
25951;DHT22;13748;52.240;6.002;2022-08-19T14:03:08;30.60;99.90
25951;DHT22;13748;52.240;6.002;2022-08-19T14:05:36;30.30;99.90
25951;DHT22;13748;52.240;6.002;2022-08-19T14:08:03;30.00;99.90
25951;DHT22;13748;52.240;6.002;2022-08-19T14:10:30;29.60;99.90
25951;DHT22;13748;52.240;6.002;2022-08-19T14:12:59;29.30;99.90
25951;DHT22;13748;52.240;6.002;2022-08-19T14:15:27;29.10;99.90
25951;DHT22;13748;52.240;6.002;2022-08-19T14:17:55;28.80;99.90
25951;DHT22;13748;52.240;6.002;2022-08-19T14:20:23;28.60;99.90
25951;DHT22;13748;52.240;6.002;2022-08-19T14:22:55;28.40;99.90
25951;DHT22;13748;52.240;6.002;2022-08-19T14:25:25;28.30;99.90
25951;DHT22;13748;52.240;6.002;2022-08-19T14:27:52;28.00;99.90
25951;DHT22;13748;52.240;6.002;2022-08-19T14:30:23;27.80;99.90
25951;DHT22;13748;52.240;6.002;2022-08-19T14:32:54;27.70;99.90
25951;DHT22;13748;52.240;6.002;2022-08-19T14:35:22;27.50;99.90
25951;DHT22;13748;52.240;6.002;2022-08-19T14:37:50;27.30;99.90
25951;DHT22;13748;52.240;6.002;2022-08-19T14:40:24;27.20;99.90
25951;DHT22;13748;52.240;6.002;2022-08-19T14:42:56;27.10;99.90
25951;DHT22;13748;52.240;6.002;2022-08-19T14:45:28;27.00;99.90
25951;DHT22;13748;52.240;6.002;2022-08-19T14:47:55;26.90;99.90
25951;DHT22;13748;52.240;6.002;2022-08-19T14:50:22;26.70;99.90
25951;DHT22;13748;52.240;6.002;2022-08-19T14:52:49;26.60;99.90
25951;DHT22;13748;52.240;6.002;2022-08-19T14:55:17;26.40;99.90
25951;DHT22;13748;52.240;6.002;2022-08-19T14:57:44;26.30;99.90
25951;DHT22;13748;52.240;6.002;2022-08-19T15:00:12;26.10;99.90
25951;DHT22;13748;52.240;6.002;2022-08-19T15:02:41;25.80;99.90
25951;DHT22;13748;52.240;6.002;2022-08-19T15:05:08;25.60;99.90
25951;DHT22;13748;52.240;6.002;2022-08-19T15:07:36;25.30;99.90
25951;DHT22;13748;52.240;6.002;2022-08-19T15:10:04;25.10;99.90
25951;DHT22;13748;52.240;6.002;2022-08-19T15:12:31;24.90;99.90
25951;DHT22;13748;52.240;6.002;2022-08-19T15:14:58;24.70;99.90
25951;DHT22;13748;52.240;6.002;2022-08-19T15:17:25;24.60;99.90
25951;DHT22;13748;52.240;6.002;2022-08-19T15:20:15;24.50;99.90
25951;DHT22;13748;52.240;6.002;2022-08-19T15:22:42;24.50;99.90
25951;DHT22;13748;52.240;6.002;2022-08-19T15:25:11;24.40;99.90
25951;DHT22;13748;52.240;6.002;2022-08-19T15:27:38;24.50;99.90
25951;DHT22;13748;52.240;6.002;2022-08-19T15:30:10;24.60;99.90
25951;DHT22;13748;52.240;6.002;2022-08-19T15:32:38;24.70;99.90
25951;DHT22;13748;52.240;6.002;2022-08-19T15:35:06;24.70;99.90
25951;DHT22;13748;52.240;6.002;2022-08-19T15:37:33;24.70;99.90
25951;DHT22;13748;52.240;6.002;2022-08-19T15:40:05;24.70;99.90
25951;DHT22;13748;52.240;6.002;2022-08-19T15:42:35;24.80;99.90
25951;DHT22;13748;52.240;6.002;2022-08-19T15:45:05;24.90;99.90
25951;DHT22;13748;52.240;6.002;2022-08-19T15:47:32;24.90;99.90
25951;DHT22;13748;52.240;6.002;2022-08-19T15:50:17;25.00;99.90
25951;DHT22;13748;52.240;6.002;2022-08-19T15:52:48;25.00;99.90
25951;DHT22;13748;52.240;6.002;2022-08-19T15:55:25;25.00;99.90
25951;DHT22;13748;52.240;6.002;2022-08-19T15:58:04;25.10;99.90
25951;DHT22;13748;52.240;6.002;2022-08-19T16:00:56;25.10;99.90
25951;DHT22;13748;52.240;6.002;2022-08-19T16:03:44;25.10;99.90
25951;DHT22;13748;52.240;6.002;2022-08-19T16:06:42;25.20;99.90
25951;DHT22;13748;52.240;6.002;2022-08-19T16:09:09;25.40;99.90
25951;DHT22;13748;52.240;6.002;2022-08-19T16:11:36;25.40;99.90
25951;DHT22;13748;52.240;6.002;2022-08-19T16:14:05;25.40;99.90
25951;DHT22;13748;52.240;6.002;2022-08-19T16:16:36;25.20;99.90
25951;DHT22;13748;52.240;6.002;2022-08-19T16:19:05;25.00;99.90
25951;DHT22;13748;52.240;6.002;2022-08-19T16:21:38;24.90;99.90
25951;DHT22;13748;52.240;6.002;2022-08-19T16:24:09;24.90;99.90
25951;DHT22;13748;52.240;6.002;2022-08-19T16:26:38;24.80;99.90
25951;DHT22;13748;52.240;6.002;2022-08-19T16:29:06;24.80;99.90
25951;DHT22;13748;52.240;6.002;2022-08-19T16:31:43;24.90;99.90
25951;DHT22;13748;52.240;6.002;2022-08-19T16:34:11;24.90;99.90
25951;DHT22;13748;52.240;6.002;2022-08-19T16:36:39;24.90;99.90
25951;DHT22;13748;52.240;6.002;2022-08-19T16:39:12;24.90;99.90
25951;DHT22;13748;52.240;6.002;2022-08-19T16:41:40;25.00;99.90
25951;DHT22;13748;52.240;6.002;2022-08-19T16:44:09;25.00;99.90
25951;DHT22;13748;52.240;6.002;2022-08-19T16:46:39;25.00;99.90
25951;DHT22;13748;52.240;6.002;2022-08-19T16:49:09;24.90;99.90
25951;DHT22;13748;52.240;6.002;2022-08-19T16:51:37;24.90;99.90